Time;durP1;ratioP1;P1;durP2;ratioP2;P2;SDS_P1;SDS_P2;PMS_P1;PMS_P2;Temp;Humidity;BMP_temperature;BMP_pressure;BME280_temperature;BME280_humidity;BME280_pressure;Samples;Min_cycle;Max_cycle;Signal;HPM_P1;HPM_P2
2022/03/29 00:01:02;;;;;;;16.67;11.67;;;;;;;10.87;54.34;101370.47;4958757;28;127959;-48
2022/03/29 00:03:28;;;;;;;14.30;9.60;;;;;;;10.88;54.38;101374.72;4959332;28;97372;-48
2022/03/29 00:05:53;;;;;;;14.53;10.10;;;;;;;10.91;54.38;101365.50;4960915;28;109374;-49
2022/03/29 00:08:19;;;;;;;15.50;10.90;;;;;;;10.92;54.27;101367.03;4960219;28;97113;-49
2022/03/29 00:10:45;;;;;;;14.60;10.70;;;;;;;10.88;54.39;101371.97;4960219;28;97144;-48
2022/03/29 00:13:11;;;;;;;18.73;13.80;;;;;;;10.79;54.17;101367.31;4962555;28;97287;-48
2022/03/29 00:15:36;;;;;;;20.43;13.80;;;;;;;10.69;54.23;101376.16;4954637;28;97319;-48
2022/03/29 00:18:02;;;;;;;25.30;15.90;;;;;;;10.54;54.56;101365.94;4963177;28;96932;-49
2022/03/29 00:20:27;;;;;;;18.07;11.53;;;;;;;10.52;54.62;101357.38;4960685;28;97494;-50
2022/03/29 00:22:53;;;;;;;19.97;13.50;;;;;;;10.52;54.44;101357.38;4963771;28;96962;-48
2022/03/29 00:25:18;;;;;;;19.33;13.07;;;;;;;10.47;54.53;101352.53;4962081;28;96859;-48
2022/03/29 00:27:44;;;;;;;18.97;12.60;;;;;;;10.46;54.69;101345.50;4958534;28;97733;-48
2022/03/29 00:30:11;;;;;;;16.40;12.07;;;;;;;10.54;54.70;101345.91;4959630;28;97169;-48
2022/03/29 00:32:39;;;;;;;18.33;12.30;;;;;;;10.53;54.66;101353.38;4960666;28;96774;-48
2022/03/29 00:35:05;;;;;;;19.07;12.27;;;;;;;10.57;54.62;101342.94;4961984;28;97162;-48
2022/03/29 00:37:31;;;;;;;18.60;11.70;;;;;;;10.63;54.46;101343.06;4960473;28;96861;-48
2022/03/29 00:39:56;;;;;;;16.10;11.43;;;;;;;10.60;54.54;101337.72;4957779;28;96990;-48
2022/03/29 00:42:22;;;;;;;19.23;11.87;;;;;;;10.60;54.58;101340.47;4962429;28;112699;-49
2022/03/29 00:44:47;;;;;;;20.50;12.97;;;;;;;10.61;54.60;101337.28;4965327;28;97064;-48
2022/03/29 00:47:12;;;;;;;18.20;12.03;;;;;;;10.63;54.72;101342.28;4962377;28;97383;-48
2022/03/29 00:49:38;;;;;;;18.03;10.97;;;;;;;10.63;54.52;101343.06;4961327;28;97331;-48
2022/03/29 00:52:04;;;;;;;18.67;11.70;;;;;;;10.62;54.50;101349.00;4961604;28;97054;-48
2022/03/29 00:54:33;;;;;;;14.40;10.87;;;;;;;10.55;54.67;101339.16;4960334;28;97105;-49
2022/03/29 00:57:00;;;;;;;15.73;10.90;;;;;;;10.57;54.69;101338.69;4958677;28;96841;-49
2022/03/29 00:59:27;;;;;;;16.50;10.40;;;;;;;10.59;54.64;101330.72;4961769;28;97455;-48
2022/03/29 01:01:53;;;;;;;18.00;11.40;;;;;;;10.58;54.66;101324.44;4963958;28;97069;-48
2022/03/29 01:04:20;;;;;;;15.80;10.73;;;;;;;10.59;54.56;101325.22;4956660;28;98193;-48
2022/03/29 01:06:46;;;;;;;16.27;11.53;;;;;;;10.62;54.74;101324.25;4964868;28;97577;-49
2022/03/29 01:09:11;;;;;;;15.23;9.80;;;;;;;10.62;54.70;101308.50;4962571;28;97377;-49
2022/03/29 01:11:38;;;;;;;14.67;10.90;;;;;;;10.65;54.68;101312.31;4965296;28;97132;-48
2022/03/29 01:14:04;;;;;;;15.40;10.27;;;;;;;10.66;54.62;101311.81;4961685;28;97184;-48
2022/03/29 01:19:16;;;;;;;13.00;9.97;;;;;;;10.67;54.42;101307.06;4961967;28;101507;-48
2022/03/29 01:22:03;;;;;;;16.67;10.50;;;;;;;10.63;54.64;101299.03;4960924;28;96721;-48
2022/03/29 01:24:29;;;;;;;16.20;10.80;;;;;;;10.61;54.61;101309.00;4965105;28;97073;-49
2022/03/29 01:27:00;;;;;;;17.57;11.90;;;;;;;10.59;54.83;101308.72;4961304;28;96748;-48
2022/03/29 01:29:27;;;;;;;16.13;10.83;;;;;;;10.59;54.78;101298.47;4959755;28;103795;-48
2022/03/29 01:31:53;;;;;;;17.37;10.80;;;;;;;10.61;54.70;101303.50;4954710;28;96668;-48
2022/03/29 01:34:20;;;;;;;18.37;12.67;;;;;;;10.64;54.73;101302.53;4957194;28;97087;-48
2022/03/29 01:36:46;;;;;;;15.47;10.93;;;;;;;10.66;54.77;101302.81;4957305;28;97602;-48
2022/03/29 01:39:11;;;;;;;19.00;11.30;;;;;;;10.64;54.67;101295.03;4958665;28;97628;-49
2022/03/29 01:41:38;;;;;;;21.20;11.70;;;;;;;10.62;54.73;101285.72;4963353;28;97249;-48
2022/03/29 01:44:07;;;;;;;22.07;12.50;;;;;;;10.64;54.74;101297.78;4961361;28;97048;-48
2022/03/29 01:46:33;;;;;;;17.57;11.50;;;;;;;10.64;54.53;101286.78;4963345;28;97155;-48
2022/03/29 01:49:00;;;;;;;17.03;11.10;;;;;;;10.65;54.80;101293.81;4959822;28;97745;-48
2022/03/29 01:51:26;;;;;;;16.87;11.60;;;;;;;10.63;54.81;101288.03;4958102;28;96711;-48
2022/03/29 01:53:56;;;;;;;19.20;10.23;;;;;;;10.65;54.85;101298.53;4957944;28;96773;-48
2022/03/29 01:56:25;;;;;;;19.17;11.57;;;;;;;10.64;54.83;101294.28;4956571;28;96719;-49
2022/03/29 01:58:51;;;;;;;16.03;11.00;;;;;;;10.66;54.77;101289.06;4963489;28;97231;-48
2022/03/29 02:01:16;;;;;;;16.83;11.10;;;;;;;10.62;54.97;101289.25;4960386;28;108403;-48
2022/03/29 02:03:41;;;;;;;16.77;10.30;;;;;;;10.64;54.95;101292.28;4965178;28;97221;-48
2022/03/29 02:06:08;;;;;;;18.40;11.70;;;;;;;10.64;54.91;101288.78;4962356;28;114682;-48
2022/03/29 02:08:33;;;;;;;15.10;11.17;;;;;;;10.61;54.96;101286.97;4965334;28;98605;-48
2022/03/29 02:10:58;;;;;;;15.17;10.50;;;;;;;10.57;54.89;101280.91;4961473;28;97048;-48
2022/03/29 02:13:24;;;;;;;15.20;10.43;;;;;;;10.56;55.05;101277.41;4957131;28;112965;-48
2022/03/29 02:15:49;;;;;;;15.17;10.27;;;;;;;10.55;54.95;101278.63;4959657;28;97539;-48
2022/03/29 02:18:15;;;;;;;17.07;10.07;;;;;;;10.55;54.95;101273.13;4956169;28;113670;-48
2022/03/29 02:20:41;;;;;;;20.60;12.17;;;;;;;10.57;55.04;101264.41;4959632;28;97179;-48
2022/03/29 02:23:09;;;;;;;15.17;10.13;;;;;;;10.57;54.91;101274.16;4962190;28;97356;-48
2022/03/29 02:25:35;;;;;;;16.97;10.90;;;;;;;10.57;54.93;101275.41;4959785;28;101115;-48
2022/03/29 02:28:03;;;;;;;16.47;11.07;;;;;;;10.56;54.92;101269.16;4960649;28;97466;-48
2022/03/29 02:30:28;;;;;;;13.60;9.50;;;;;;;10.55;54.93;101268.38;4964433;28;97509;-49
2022/03/29 02:32:54;;;;;;;14.80;10.30;;;;;;;10.56;55.15;101271.91;4960548;28;97192;-48
2022/03/29 02:35:19;;;;;;;14.47;10.40;;;;;;;10.52;54.95;101263.84;4959656;28;97153;-48
2022/03/29 02:37:45;;;;;;;15.50;10.37;;;;;;;10.46;54.90;101271.22;4956223;28;99964;-48
2022/03/29 02:40:11;;;;;;;17.70;10.90;;;;;;;10.43;55.06;101265.94;4962221;28;96689;-48
2022/03/29 02:42:47;;;;;;;15.90;9.87;;;;;;;10.45;55.04;101258.72;4950573;28;96823;-48
2022/03/29 02:45:17;;;;;;;14.37;10.30;;;;;;;10.45;55.10;101258.72;4959153;28;97369;-48
2022/03/29 02:47:48;;;;;;;15.20;9.50;;;;;;;10.45;55.03;101257.97;4958124;28;97271;-48
2022/03/29 02:50:14;;;;;;;12.43;8.80;;;;;;;10.44;54.93;101256.47;4962248;28;97526;-48
2022/03/29 02:52:47;;;;;;;13.33;8.97;;;;;;;10.46;55.02;101260.22;4965399;28;96925;-48
2022/03/29 02:55:14;;;;;;;16.90;9.90;;;;;;;10.45;54.93;101258.72;4961281;28;98616;-49
2022/03/29 02:57:39;;;;;;;16.60;10.13;;;;;;;10.42;55.04;101256.91;4960775;28;97193;-48
2022/03/29 03:00:05;;;;;;;14.00;9.43;;;;;;;10.39;54.89;101257.88;4958182;28;98627;-48
2022/03/29 03:02:32;;;;;;;14.30;9.13;;;;;;;10.40;55.08;101259.38;4955385;28;97076;-48
2022/03/29 03:04:58;;;;;;;16.80;9.03;;;;;;;10.41;54.96;101265.66;4960286;28;97372;-48
2022/03/29 03:07:23;;;;;;;21.03;11.00;;;;;;;10.38;55.02;101259.13;4948251;28;97610;-48
2022/03/29 03:09:49;;;;;;;20.50;9.90;;;;;;;10.37;54.92;101251.34;4962085;28;112968;-48
2022/03/29 03:12:14;;;;;;;17.50;10.80;;;;;;;10.33;54.96;101251.53;4962229;28;97350;-48
2022/03/29 03:14:39;;;;;;;15.17;9.97;;;;;;;10.33;54.97;101251.53;4963197;28;127356;-48
2022/03/29 03:17:05;;;;;;;16.63;9.60;;;;;;;10.34;54.91;101253.06;4962519;28;96834;-49
2022/03/29 03:19:30;;;;;;;15.70;10.70;;;;;;;10.30;55.38;101244.25;4961224;28;112025;-48
2022/03/29 03:21:55;;;;;;;14.30;9.50;;;;;;;10.32;54.86;101241.78;4960605;28;112892;-48
2022/03/29 03:24:20;;;;;;;16.33;10.40;;;;;;;10.35;54.84;101243.56;4957618;28;126295;-48
2022/03/29 03:26:46;;;;;;;12.97;9.27;;;;;;;10.35;54.80;101237.31;4958796;28;127788;-48
2022/03/29 03:29:11;;;;;;;13.57;9.63;;;;;;;10.32;54.74;101239.03;4960228;28;96979;-51
2022/03/29 03:31:36;;;;;;;16.53;10.50;;;;;;;10.28;54.73;101232.97;4952261;28;111741;-48
2022/03/29 03:34:02;;;;;;;13.97;9.93;;;;;;;10.23;54.77;101225.38;4964888;28;96953;-48
2022/03/29 03:36:27;;;;;;;14.57;10.30;;;;;;;10.24;54.80;101221.38;4962949;28;122485;-48
2022/03/29 03:38:52;;;;;;;15.70;10.17;;;;;;;10.25;54.74;101217.41;4962611;28;97469;-48
2022/03/29 03:41:18;;;;;;;18.83;9.93;;;;;;;10.26;54.74;101216.19;4961447;28;97361;-48
2022/03/29 03:43:43;;;;;;;18.70;10.37;;;;;;;10.28;54.63;101210.19;4960184;28;113433;-47
2022/03/29 03:46:08;;;;;;;20.67;11.17;;;;;;;10.22;54.52;101212.09;4959982;28;122839;-48
2022/03/29 03:48:34;;;;;;;16.80;10.43;;;;;;;10.18;54.63;101206.78;4958455;28;112314;-47
2022/03/29 03:51:01;;;;;;;18.00;10.63;;;;;;;10.09;54.67;101206.84;4959826;28;97134;-48
2022/03/29 03:53:26;;;;;;;17.50;10.73;;;;;;;10.11;54.62;101195.44;4963162;28;101823;-47
2022/03/29 03:55:52;;;;;;;17.10;10.60;;;;;;;10.11;54.58;101200.94;4962553;28;98915;-47
2022/03/29 03:58:17;;;;;;;16.70;10.00;;;;;;;10.08;54.64;101205.34;4962794;28;97345;-47
2022/03/29 04:00:42;;;;;;;14.90;10.53;;;;;;;10.05;54.77;101206.28;4963314;28;97767;-48
2022/03/29 04:03:09;;;;;;;16.90;10.77;;;;;;;10.08;54.76;101208.09;4960808;28;96988;-47
2022/03/29 04:05:34;;;;;;;18.90;9.47;;;;;;;10.11;54.56;101211.91;4959940;28;97367;-48
2022/03/29 04:07:59;;;;;;;16.77;10.80;;;;;;;10.03;54.60;101206.00;4962185;28;96902;-48
2022/03/29 04:10:26;;;;;;;16.00;10.20;;;;;;;10.03;54.74;101222.50;4961227;28;114467;-47
2022/03/29 04:12:51;;;;;;;16.47;10.50;;;;;;;10.09;54.79;101200.63;4962941;28;97621;-47
2022/03/29 04:15:16;;;;;;;15.27;11.00;;;;;;;10.08;54.81;101199.09;4963570;28;99324;-47
2022/03/29 04:17:42;;;;;;;35.23;10.93;;;;;;;10.09;54.62;101197.88;4966235;28;97414;-47
2022/03/29 04:20:08;;;;;;;17.27;10.13;;;;;;;10.08;54.51;101197.09;4954471;28;103673;-47
2022/03/29 04:22:33;;;;;;;16.73;10.50;;;;;;;10.06;54.32;101201.56;4963774;28;97778;-47
2022/03/29 04:24:58;;;;;;;19.03;11.17;;;;;;;9.91;54.64;101201.56;4962982;28;125361;-47
2022/03/29 04:27:24;;;;;;;20.20;10.90;;;;;;;9.94;54.68;101197.13;4965892;28;97069;-47
2022/03/29 04:29:49;;;;;;;17.70;11.13;;;;;;;9.99;54.67;101199.19;4958333;28;97050;-47
2022/03/29 04:32:14;;;;;;;20.60;10.70;;;;;;;10.02;54.41;101192.75;4958152;28;126582;-48
2022/03/29 04:34:40;;;;;;;16.30;10.63;;;;;;;10.07;54.58;101194.84;4963655;28;97344;-47
2022/03/29 04:37:05;;;;;;;18.10;10.17;;;;;;;10.11;54.47;101189.94;4959893;28;97056;-48
2022/03/29 04:39:31;;;;;;;15.80;10.37;;;;;;;10.12;54.51;101183.94;4965439;28;96819;-47
2022/03/29 04:41:57;;;;;;;20.10;10.17;;;;;;;10.15;54.39;101185.00;4962068;28;98681;-48
2022/03/29 04:44:23;;;;;;;17.20;10.00;;;;;;;10.15;54.51;101166.50;4953371;28;97597;-47
2022/03/29 04:46:48;;;;;;;17.30;11.13;;;;;;;10.17;54.27;101169.53;4957580;28;96753;-47
2022/03/29 04:49:14;;;;;;;16.97;10.43;;;;;;;10.18;54.37;101165.53;4955054;28;97356;-47
2022/03/29 04:51:39;;;;;;;16.30;10.40;;;;;;;10.14;54.40;101167.72;4959466;28;126155;-47
2022/03/29 04:54:04;;;;;;;21.67;11.43;;;;;;;10.13;54.51;101170.97;4958729;28;127225;-48
2022/03/29 04:56:29;;;;;;;18.47;10.83;;;;;;;10.11;54.42;101168.66;4960376;28;96860;-47
2022/03/29 04:58:55;;;;;;;18.40;10.50;;;;;;;10.10;54.38;101167.13;4962303;28;112708;-47
2022/03/29 05:01:21;;;;;;;19.83;11.47;;;;;;;10.12;54.34;101169.44;4962591;28;97138;-48
2022/03/29 05:03:46;;;;;;;19.13;10.53;;;;;;;10.13;54.42;101168.97;4963820;28;114893;-47
2022/03/29 05:06:11;;;;;;;20.27;11.10;;;;;;;10.15;54.36;101169.25;4954078;28;97169;-48
2022/03/29 05:08:37;;;;;;;16.00;10.97;;;;;;;10.16;54.42;101168.00;4962327;28;97150;-48
2022/03/29 05:11:02;;;;;;;19.17;10.83;;;;;;;10.19;54.65;101167.06;4953486;28;128147;-47
2022/03/29 05:13:28;;;;;;;18.60;10.73;;;;;;;10.20;54.31;101170.56;4956223;28;125486;-47
2022/03/29 05:15:53;;;;;;;16.47;10.67;;;;;;;10.22;54.45;101173.59;4958061;28;96952;-48
2022/03/29 05:18:19;;;;;;;18.87;10.90;;;;;;;10.23;54.49;101170.38;4958636;28;97067;-47
2022/03/29 05:20:44;;;;;;;19.13;10.13;;;;;;;10.25;54.52;101173.41;4960846;28;121911;-47
2022/03/29 05:23:10;;;;;;;14.50;9.53;;;;;;;10.24;54.25;101177.38;4963697;28;97355;-47
2022/03/29 05:25:36;;;;;;;14.83;10.30;;;;;;;10.25;54.29;101167.13;4963119;28;97411;-48
2022/03/29 05:28:02;;;;;;;20.30;11.20;;;;;;;10.23;54.43;101161.34;4959922;28;96945;-48
2022/03/29 05:30:28;;;;;;;22.23;12.07;;;;;;;10.24;54.45;101162.88;4953853;28;97058;-48
2022/03/29 05:33:00;;;;;;;27.97;11.33;;;;;;;10.22;54.36;101160.59;4962611;28;97148;-48
2022/03/29 05:35:29;;;;;;;18.93;11.00;;;;;;;10.17;54.44;101161.28;4957419;28;97331;-47
2022/03/29 05:37:57;;;;;;;16.90;10.93;;;;;;;10.16;54.34;101164.50;4958237;28;96850;-48
2022/03/29 05:40:28;;;;;;;18.77;10.50;;;;;;;10.16;54.44;101148.75;4955097;28;97340;-47
2022/03/29 05:42:54;;;;;;;21.33;11.77;;;;;;;10.17;54.41;101164.03;4957765;28;97217;-48
2022/03/29 05:45:20;;;;;;;19.90;12.90;;;;;;;10.18;54.55;101151.78;4960711;28;97269;-47
2022/03/29 05:50:29;;;;;;;22.13;12.23;;;;;;;10.20;54.46;101156.84;4957926;28;97344;-47
2022/03/29 05:52:56;;;;;;;18.77;11.90;;;;;;;10.22;54.51;101155.09;4955898;28;97220;-48
2022/03/29 05:55:22;;;;;;;17.70;11.70;;;;;;;10.23;54.45;101158.59;4957604;28;97100;-48
2022/03/29 05:57:49;;;;;;;24.93;12.63;;;;;;;10.25;54.56;101156.13;4957042;28;97523;-47
2022/03/29 06:00:16;;;;;;;21.90;12.07;;;;;;;10.29;54.58;101162.97;4952810;28;97382;-47
2022/03/29 06:02:41;;;;;;;21.60;11.73;;;;;;;10.33;54.47;101165.53;4959333;28;97642;-47
2022/03/29 06:05:07;;;;;;;21.87;12.27;;;;;;;10.36;54.56;101162.56;4955224;28;112025;-47
2022/03/29 06:07:33;;;;;;;22.17;11.80;;;;;;;10.41;54.49;101158.38;4957127;28;97236;-47
2022/03/29 06:09:58;;;;;;;21.63;12.37;;;;;;;10.43;54.53;101161.41;4958776;28;97949;-47
2022/03/29 06:12:24;;;;;;;21.70;12.60;;;;;;;10.45;54.76;101173.47;4956258;28;97460;-47
2022/03/29 06:14:49;;;;;;;18.23;11.57;;;;;;;10.47;54.35;101170.97;4958340;28;96867;-47
2022/03/29 06:17:16;;;;;;;22.30;12.30;;;;;;;10.47;54.36;101168.22;4952955;28;97323;-47
2022/03/29 06:19:42;;;;;;;20.23;11.63;;;;;;;10.49;54.46;101176.75;4957145;28;99216;-47
2022/03/29 06:22:07;;;;;;;18.20;11.67;;;;;;;10.49;54.40;101176.00;4956412;28;97164;-47
2022/03/29 06:24:33;;;;;;;18.00;11.83;;;;;;;10.50;54.40;101178.28;4954589;28;96798;-47
2022/03/29 06:26:58;;;;;;;18.37;11.73;;;;;;;10.52;54.33;101175.81;4960114;28;97354;-47
2022/03/29 06:29:24;;;;;;;19.63;10.90;;;;;;;10.51;54.41;101177.03;4957055;28;97546;-47
2022/03/29 06:31:51;;;;;;;21.77;12.20;;;;;;;10.50;54.41;101178.28;4962012;28;97741;-47
2022/03/29 06:34:16;;;;;;;26.40;11.70;;;;;;;10.50;54.40;101189.28;4958757;28;96873;-47
2022/03/29 06:36:41;;;;;;;21.07;11.63;;;;;;;10.51;54.53;101187.28;4956956;28;96948;-47
2022/03/29 06:39:08;;;;;;;26.00;12.73;;;;;;;10.53;54.39;101182.81;4958699;28;97407;-47
2022/03/29 06:41:34;;;;;;;20.50;11.80;;;;;;;10.57;54.35;101176.38;4955487;28;97195;-47
2022/03/29 06:44:00;;;;;;;21.43;11.70;;;;;;;10.60;54.35;101178.16;4963714;28;97473;-47
2022/03/29 06:46:25;;;;;;;18.97;11.67;;;;;;;10.62;54.47;101181.94;4957042;28;97530;-47
2022/03/29 06:48:51;;;;;;;20.97;11.77;;;;;;;10.64;54.34;101182.22;4964471;28;97715;-47
2022/03/29 06:51:18;;;;;;;19.87;11.70;;;;;;;10.65;54.38;101178.22;4964977;28;97260;-47
2022/03/29 06:53:44;;;;;;;20.83;12.07;;;;;;;10.66;54.18;101174.22;4961441;28;97267;-47
2022/03/29 06:56:09;;;;;;;23.43;12.87;;;;;;;10.68;54.32;101171.03;4962906;28;97274;-47
2022/03/29 06:58:35;;;;;;;20.50;12.30;;;;;;;10.66;54.36;101165.97;4961521;28;120879;-47
2022/03/29 07:01:01;;;;;;;19.37;12.80;;;;;;;10.73;54.37;101175.81;4961150;28;97025;-47
2022/03/29 07:03:27;;;;;;;20.80;12.70;;;;;;;10.76;54.34;101164.63;4960657;28;97370;-48
2022/03/29 07:05:53;;;;;;;20.20;13.00;;;;;;;10.78;54.27;101164.91;4957261;28;96980;-48
2022/03/29 07:08:20;;;;;;;19.80;12.20;;;;;;;10.81;54.38;101169.44;4963820;28;97331;-47
2022/03/29 07:13:30;;;;;;;23.60;13.00;;;;;;;10.87;54.20;101161.25;4964368;28;97432;-48
2022/03/29 07:15:56;;;;;;;19.43;11.53;;;;;;;10.87;54.20;101166.75;4960642;28;97188;-47
2022/03/29 07:18:21;;;;;;;16.97;11.53;;;;;;;10.90;54.19;101163.06;4965647;28;98328;-47
2022/03/29 07:20:47;;;;;;;26.27;13.10;;;;;;;10.91;54.17;101150.78;4963480;28;99633;-48
2022/03/29 07:23:12;;;;;;;25.27;12.07;;;;;;;10.93;54.20;101156.56;4960443;28;97414;-47
2022/03/29 07:25:38;;;;;;;20.50;12.63;;;;;;;10.94;54.08;101183.59;4962614;28;97375;-48
2022/03/29 07:28:04;;;;;;;17.80;12.20;;;;;;;10.99;54.19;101168.41;4961073;28;97458;-47
2022/03/29 07:30:33;;;;;;;20.60;12.40;;;;;;;10.99;54.06;101158.16;4958991;28;96951;-47
2022/03/29 07:32:58;;;;;;;20.83;11.20;;;;;;;11.03;54.01;101163.47;4964995;28;97284;-48
2022/03/29 07:35:26;;;;;;;20.43;11.80;;;;;;;11.04;53.99;101159.47;4962324;28;97092;-47
2022/03/29 07:37:52;;;;;;;19.20;11.77;;;;;;;11.05;53.97;101158.97;4966426;28;98727;-47
2022/03/29 07:40:21;;;;;;;17.17;11.40;;;;;;;11.08;53.98;101162.75;4963089;28;97888;-47
2022/03/29 07:42:49;;;;;;;17.33;11.60;;;;;;;11.09;53.97;101156.78;4965816;28;97103;-48
2022/03/29 07:45:16;;;;;;;15.50;10.10;;;;;;;11.15;53.97;101159.59;4963886;28;96926;-48
2022/03/29 07:47:42;;;;;;;20.70;12.77;;;;;;;11.15;54.05;101170.59;4959894;28;103499;-48
2022/03/29 07:50:08;;;;;;;21.00;11.70;;;;;;;11.21;54.03;101158.41;4963392;28;98709;-48
2022/03/29 07:52:35;;;;;;;21.70;11.27;;;;;;;11.26;53.94;101154.97;4965965;28;97093;-47
2022/03/29 07:55:01;;;;;;;17.90;11.60;;;;;;;11.31;53.73;101156.28;4960817;28;96988;-47
2022/03/29 07:57:26;;;;;;;18.00;10.80;;;;;;;11.35;53.81;101145.03;4962213;28;97693;-47
2022/03/29 07:59:51;;;;;;;21.97;12.00;;;;;;;11.33;53.73;101148.28;4965122;28;107837;-48
2022/03/29 08:02:17;;;;;;;20.17;11.47;;;;;;;11.38;53.89;101144.81;4967340;28;96707;-48
2022/03/29 08:04:42;;;;;;;18.13;12.00;;;;;;;11.45;53.77;101155.41;4961900;28;113816;-47
2022/03/29 08:07:08;;;;;;;21.80;11.90;;;;;;;11.57;53.63;101150.75;4957942;28;97546;-48
2022/03/29 08:09:34;;;;;;;14.77;10.33;;;;;;;11.67;53.66;101144.63;4958195;28;97706;-47
2022/03/29 08:11:59;;;;;;;21.80;11.97;;;;;;;11.74;53.45;101138.69;4962053;28;97067;-47
2022/03/29 08:14:28;;;;;;;22.47;12.93;;;;;;;11.84;53.46;101144.75;4964191;28;97102;-47
2022/03/29 08:16:53;;;;;;;17.50;11.40;;;;;;;11.93;53.41;101128.81;4962771;28;101956;-49
2022/03/29 08:19:19;;;;;;;15.27;10.97;;;;;;;11.99;53.11;101126.84;4966582;28;96975;-48
2022/03/29 08:21:49;;;;;;;20.83;12.10;;;;;;;12.03;53.08;101129.38;4960119;28;97048;-49
2022/03/29 08:24:15;;;;;;;23.73;12.37;;;;;;;12.08;53.27;101117.63;4956788;28;97122;-48
2022/03/29 08:26:41;;;;;;;22.53;11.87;;;;;;;12.15;53.24;101124.69;4958346;28;97936;-48
2022/03/29 08:29:06;;;;;;;21.90;12.73;;;;;;;12.24;53.20;101121.75;4956558;28;97140;-48
2022/03/29 08:31:31;;;;;;;20.20;11.50;;;;;;;12.34;52.97;101121.06;4957713;28;96891;-46
2022/03/29 08:33:57;;;;;;;17.37;11.60;;;;;;;12.42;52.89;101121.34;4959444;28;97842;-46
2022/03/29 08:36:22;;;;;;;19.40;11.43;;;;;;;12.49;52.67;101118.13;4960631;28;128286;-45
2022/03/29 08:38:47;;;;;;;18.67;12.13;;;;;;;12.57;52.55;101113.66;4964261;28;97673;-47
2022/03/29 08:41:13;;;;;;;22.43;11.40;;;;;;;12.61;52.30;101108.66;4962795;28;112039;-46
2022/03/29 08:43:39;;;;;;;19.17;12.60;;;;;;;12.63;52.38;101101.41;4960801;28;111445;-47
2022/03/29 08:46:05;;;;;;;25.03;11.97;;;;;;;12.64;52.30;101108.44;4953324;28;98036;-47
2022/03/29 08:48:30;;;;;;;20.97;12.00;;;;;;;12.69;52.33;101104.94;4958963;28;96740;-49
2022/03/29 08:50:58;;;;;;;23.60;11.47;;;;;;;12.73;52.07;101108.19;4956115;28;97102;-47
2022/03/29 08:53:24;;;;;;;19.33;11.87;;;;;;;12.75;52.13;101102.19;4958514;28;96981;-47
2022/03/29 08:55:50;;;;;;;18.60;11.97;;;;;;;12.77;52.27;101100.47;4957205;28;97060;-47
2022/03/29 08:58:17;;;;;;;17.77;11.37;;;;;;;12.84;52.08;101099.22;4960482;28;97194;-47
2022/03/29 09:00:48;;;;;;;17.60;10.80;;;;;;;12.91;52.00;101095.22;4959089;28;96979;-47
2022/03/29 09:03:15;;;;;;;24.00;11.80;;;;;;;12.93;51.80;101098.25;4960842;28;97200;-48
2022/03/29 09:05:41;;;;;;;17.67;11.50;;;;;;;12.90;51.95;101097.22;4961980;28;97829;-49
2022/03/29 09:08:09;;;;;;;16.40;11.00;;;;;;;12.90;51.62;101096.47;4957990;28;97201;-47
2022/03/29 09:10:49;;;;;;;14.87;10.60;;;;;;;12.87;51.23;101094.69;4954712;28;97228;-47
2022/03/29 09:13:23;;;;;;;16.90;11.80;;;;;;;12.97;51.61;101090.47;4956386;28;98250;-48
2022/03/29 09:15:51;;;;;;;17.50;11.10;;;;;;;13.02;51.69;101084.94;4953645;28;101846;-47
2022/03/29 09:18:16;;;;;;;15.40;11.00;;;;;;;13.11;51.65;101090.28;4959403;28;100879;-47
2022/03/29 09:20:44;;;;;;;15.97;11.57;;;;;;;13.21;51.62;101096.34;4957371;28;96883;-47
2022/03/29 09:23:17;;;;;;;18.87;11.30;;;;;;;13.24;50.88;101087.78;4960482;28;99265;-48
2022/03/29 09:25:47;;;;;;;18.27;11.30;;;;;;;13.16;51.38;101086.78;4960328;28;97142;-47
2022/03/29 09:28:14;;;;;;;19.57;11.80;;;;;;;13.37;51.54;101088.06;4956618;28;96987;-48
2022/03/29 09:30:42;;;;;;;21.90;12.70;;;;;;;13.51;51.11;101087.09;4958684;28;96942;-48
2022/03/29 09:33:30;;;;;;;19.27;11.60;;;;;;;13.57;50.10;101078.78;4956441;28;97352;-48
2022/03/29 09:35:58;;;;;;;17.50;10.83;;;;;;;13.69;50.77;101082.31;4960507;28;97092;-47
2022/03/29 09:38:37;;;;;;;20.17;12.10;;;;;;;13.71;50.65;101080.56;4954105;28;98300;-47
2022/03/29 09:41:04;;;;;;;23.00;11.77;;;;;;;13.76;50.60;101079.78;4957390;28;97432;-47
2022/03/29 09:43:31;;;;;;;15.70;9.87;;;;;;;13.77;50.62;101081.28;4957008;28;97047;-48
2022/03/29 09:46:02;;;;;;;16.97;10.70;;;;;;;13.78;50.54;101074.50;4960935;28;97056;-48
2022/03/29 09:48:29;;;;;;;17.70;11.40;;;;;;;13.88;50.54;101075.00;4961293;28;97189;-48
2022/03/29 09:50:57;;;;;;;15.03;9.17;;;;;;;14.03;50.53;101067.19;4958368;28;96868;-48
2022/03/29 09:53:45;;;;;;;18.07;10.70;;;;;;;14.02;49.17;101080.25;4957988;28;97089;-48
2022/03/29 09:56:13;;;;;;;15.00;10.70;;;;;;;13.95;49.81;101069.72;4956583;28;97307;-48
2022/03/29 09:58:39;;;;;;;17.80;12.70;;;;;;;14.01;50.17;101076.00;4955031;28;96947;-48
2022/03/29 10:01:06;;;;;;;19.90;10.67;;;;;;;14.05;50.02;101070.19;4959709;28;97617;-48
2022/03/29 10:03:35;;;;;;;22.33;10.90;;;;;;;13.94;49.52;101070.22;4956913;28;97100;-48
2022/03/29 10:06:04;;;;;;;20.27;11.80;;;;;;;13.79;49.19;101069.72;4958804;28;97910;-47
2022/03/29 10:11:22;;;;;;;17.53;11.63;;;;;;;13.77;49.83;101050.13;4960168;28;97884;-47
2022/03/29 10:13:49;;;;;;;19.00;10.70;;;;;;;14.02;49.63;101058.13;4960376;28;97074;-48
2022/03/29 10:16:16;;;;;;;15.87;9.77;;;;;;;14.18;49.40;101053.81;4959817;28;98777;-48
2022/03/29 10:18:45;;;;;;;12.57;8.90;;;;;;;14.26;49.41;101054.81;4963639;28;97039;-49
2022/03/29 10:21:13;;;;;;;14.87;9.47;;;;;;;14.27;49.28;101054.28;4960943;28;96907;-48
2022/03/29 10:23:41;;;;;;;13.53;9.07;;;;;;;14.44;49.26;101048.00;4963350;28;96950;-46
2022/03/29 10:26:09;;;;;;;13.37;9.10;;;;;;;14.74;48.81;101046.09;4955391;28;96584;-48
2022/03/29 10:28:34;;;;;;;15.20;8.87;;;;;;;14.86;48.59;101048.28;4961511;28;96963;-48
2022/03/29 10:30:59;;;;;;;16.43;9.43;;;;;;;14.88;48.33;101039.44;4963515;28;96969;-49
2022/03/29 10:33:33;;;;;;;13.73;8.60;;;;;;;14.76;47.90;101047.09;4965235;28;106164;-48
2022/03/29 10:35:58;;;;;;;15.63;8.93;;;;;;;14.57;48.07;101045.41;4963565;28;100618;-48
2022/03/29 10:38:43;;;;;;;11.87;8.20;;;;;;;14.53;45.77;101033.84;4961250;28;104324;-48
2022/03/29 10:41:32;;;;;;;12.93;8.23;;;;;;;14.55;47.03;101034.84;4962970;28;96946;-49
2022/03/29 10:44:04;;;;;;;17.03;9.87;;;;;;;14.73;47.47;101025.94;4951544;28;97007;-48
2022/03/29 10:46:39;;;;;;;15.27;9.40;;;;;;;14.92;47.13;101021.28;4960545;28;97615;-49
2022/03/29 10:49:32;;;;;;;21.97;10.37;;;;;;;15.00;46.88;101024.28;4963063;28;100542;-49
2022/03/29 10:52:03;;;;;;;16.80;10.47;;;;;;;15.13;47.17;101016.13;4960824;28;96990;-49
2022/03/29 10:54:36;;;;;;;13.67;8.07;;;;;;;15.31;46.26;101011.97;4966094;28;103339;-47
2022/03/29 10:57:06;;;;;;;17.53;10.70;;;;;;;15.18;47.07;101011.81;4962298;28;97383;-46
2022/03/29 10:59:34;;;;;;;16.67;9.43;;;;;;;15.13;47.37;101016.13;4964245;28;97616;-47
2022/03/29 11:02:15;;;;;;;14.93;8.60;;;;;;;15.13;45.95;101007.06;4961519;28;97109;-48
2022/03/29 11:05:08;;;;;;;16.90;9.30;;;;;;;15.12;45.97;101011.84;4962881;28;97191;-47
2022/03/29 11:07:52;;;;;;;14.70;9.00;;;;;;;15.59;45.94;101002.16;4959611;28;101861;-46
2022/03/29 11:10:19;;;;;;;11.93;9.50;;;;;;;15.97;46.87;100991.16;4959847;28;114811;-49
2022/03/29 11:12:49;;;;;;;11.87;8.40;;;;;;;16.26;45.82;100996.63;4966313;28;96899;-47
2022/03/29 11:15:37;;;;;;;14.37;10.20;;;;;;;16.16;44.27;100989.94;4964999;28;96632;-49
2022/03/29 11:18:23;;;;;;;11.67;8.63;;;;;;;16.04;45.94;100991.34;4966515;28;100647;-46
2022/03/29 11:20:54;;;;;;;14.57;9.53;;;;;;;16.23;45.82;100991.38;4965084;28;100988;-47